createdAt,value
2022-10-23T07:24:19.466Z,98564.19
2022-10-23T07:27:29.234Z,98568.41
2022-10-23T07:30:43.816Z,98570.25
2022-10-23T07:33:57.825Z,98553.13
2022-10-23T07:37:07.533Z,98567.41
2022-10-23T07:40:29.128Z,98566.56
2022-10-23T07:43:40.184Z,98577.28
2022-10-23T07:46:50.261Z,98564.94
2022-10-23T07:50:00.618Z,98555.09
2022-10-23T07:53:17.530Z,98548.00
2022-10-23T07:56:30.116Z,98553.97
2022-10-23T07:59:55.145Z,98564.88
2022-10-23T08:03:13.347Z,98538.84
2022-10-23T08:06:23.946Z,98549.34
2022-10-23T08:09:41.759Z,98526.34
2022-10-23T08:12:53.246Z,98518.06
2022-10-23T08:16:15.550Z,98510.53
2022-10-23T08:19:37.222Z,98508.22
2022-10-23T08:22:47.034Z,98514.00
2022-10-23T08:26:05.291Z,98513.28
2022-10-23T08:29:16.654Z,98513.28
2022-10-23T08:32:32.513Z,98514.34
2022-10-23T08:35:49.587Z,98506.06
2022-10-23T08:39:08.192Z,98512.44
2022-10-23T08:42:27.392Z,98504.91
2022-10-23T08:45:55.424Z,98504.59
2022-10-23T08:49:36.888Z,98502.06
2022-10-23T08:56:21.734Z,98493.44
2022-10-23T08:59:39.876Z,98490.84
2022-10-23T09:02:53.422Z,98492.75
2022-10-23T09:06:12.414Z,98493.16
2022-10-23T09:09:42.266Z,98491.22
2022-10-23T09:12:52.105Z,98480.88
2022-10-23T09:16:13.733Z,98477.41
2022-10-23T09:19:27.017Z,98474.66
2022-10-23T09:22:36.631Z,98482.50
2022-10-23T09:25:57.333Z,98484.56
2022-10-23T09:29:20.583Z,98487.56
2022-10-23T09:32:43.487Z,98478.59
2022-10-23T09:36:04.370Z,98475.56
2022-10-23T09:39:24.073Z,98475.69
2022-10-23T09:42:39.535Z,98461.28
2022-10-23T09:45:58.100Z,98460.00
2022-10-23T09:49:26.500Z,98451.88
2022-10-23T09:52:38.384Z,98461.38
2022-10-23T09:55:53.693Z,98457.81
2022-10-23T09:59:08.776Z,98451.28
2022-10-23T10:02:27.124Z,98455.72
2022-10-23T10:05:56.659Z,98447.06
2022-10-23T10:09:12.903Z,98446.09
2022-10-23T10:12:41.654Z,98450.63
2022-10-23T10:15:57.258Z,98463.34
2022-10-23T10:19:19.723Z,98459.78
2022-10-23T10:22:39.549Z,98439.44
2022-10-23T10:26:07.919Z,98443.31
2022-10-23T10:29:29.844Z,98431.91
2022-10-23T10:32:52.861Z,98441.44
2022-10-23T12:53:33.008Z,98251.25
2022-10-23T12:56:46.178Z,98244.53
2022-10-23T13:00:07.564Z,98251.75
2022-10-23T13:03:34.736Z,98239.84
2022-10-23T13:06:50.456Z,98227.69
2022-10-23T13:26:31.975Z,98184.56
2022-10-23T13:29:44.280Z,98169.75
2022-10-23T13:32:59.291Z,98160.13
2022-10-23T13:36:24.662Z,98158.59
2022-10-23T13:39:37.290Z,98160.50
2022-10-23T13:42:56.155Z,98163.16
2022-10-23T13:46:16.786Z,98178.94
2022-10-23T13:52:42.617Z,98178.00
2022-10-23T13:56:20.927Z,98164.81
2022-10-23T13:59:33.284Z,98156.00
2022-10-23T14:02:45.695Z,98156.69
2022-10-23T14:05:57.686Z,98146.09
2022-10-23T14:09:10.387Z,98136.31
2022-10-23T14:12:21.415Z,98133.53
2022-10-23T14:15:44.738Z,98137.75
2022-10-23T14:19:05.209Z,98140.31
2022-10-23T14:22:26.486Z,98145.41
2022-10-23T14:25:44.761Z,98153.78
2022-10-23T14:29:02.372Z,98146.31
2022-10-23T14:32:23.345Z,98137.56
2022-10-23T14:39:26.145Z,98148.06
2022-10-23T14:42:36.309Z,98157.53
2022-10-23T14:45:46.408Z,98145.44
2022-10-23T17:09:45.543Z,98144.69
2022-10-23T17:13:00.971Z,98164.81
2022-10-23T17:16:16.082Z,98175.53
2022-10-23T17:19:44.274Z,98158.38
2022-10-23T17:22:57.890Z,98155.88
2022-10-23T17:26:10.176Z,98180.28
2022-10-23T17:29:28.374Z,98197.72
2022-10-23T17:32:39.566Z,98203.47
2022-10-23T17:35:51.552Z,98216.44
2022-10-23T17:39:03.184Z,98227.81
2022-10-23T17:42:14.222Z,98230.97
2022-10-23T17:45:26.764Z,98250.75
2022-10-23T17:48:38.732Z,98252.47
2022-10-23T17:51:54.901Z,98227.19
2022-10-23T17:55:07.159Z,98198.09
2022-10-23T17:58:18.464Z,98180.03
2022-10-23T18:01:32.595Z,98151.56
2022-10-23T18:04:44.541Z,98104.41
2022-10-23T18:07:59.036Z,98121.16
2022-10-23T18:11:16.072Z,98120.63
2022-10-23T18:14:29.665Z,98125.81
2022-10-23T18:17:44.008Z,98130.91
2022-10-23T18:20:56.203Z,98113.75
2022-10-23T18:24:08.724Z,98108.56
2022-10-23T18:27:21.736Z,98106.81
2022-10-23T18:30:33.429Z,98118.94
2022-10-23T18:33:47.605Z,98118.06
2022-10-23T18:36:58.255Z,98128.94
2022-10-23T18:40:10.638Z,98138.63
2022-10-23T18:43:42.665Z,98143.78
2022-10-23T18:46:57.686Z,98132.09
2022-10-23T18:50:14.059Z,98134.31
2022-10-23T18:53:26.017Z,98135.25
2022-10-23T18:56:40.753Z,98134.44
2022-10-23T18:59:57.649Z,98142.84
2022-10-23T19:03:11.486Z,98149.63
2022-10-23T19:06:24.992Z,98146.88
2022-10-23T19:09:36.728Z,98153.28
2022-10-23T19:12:52.488Z,98155.88
2022-10-23T19:16:08.024Z,98159.41
2022-10-23T19:19:23.458Z,98144.66
2022-10-23T19:22:47.513Z,98152.31
2022-10-23T19:26:02.863Z,98146.72
2022-10-23T19:29:23.292Z,98157.13
2022-10-23T19:32:35.693Z,98148.41
2022-10-23T19:35:50.472Z,98138.94
2022-10-23T19:39:03.388Z,98137.03
2022-10-23T19:42:18.312Z,98141.19
2022-10-23T19:48:44.965Z,98144.44
2022-10-23T19:51:56.886Z,98140.13
2022-10-23T19:55:12.803Z,98131.47
2022-10-23T19:58:25.143Z,98139.81
2022-10-23T20:01:37.951Z,98137.03
2022-10-23T20:04:51.272Z,98145.34
2022-10-23T20:08:03.841Z,98146.72
2022-10-23T20:11:22.758Z,98151.63
2022-10-23T20:14:36.101Z,98152.31
2022-10-23T20:17:49.763Z,98162.47
2022-10-23T20:21:06.259Z,98172.63
2022-10-23T20:24:23.845Z,98171.50
2022-10-23T20:27:38.983Z,98181.75
2022-10-23T20:30:52.910Z,98174.66
2022-10-23T20:34:04.972Z,98191.53
2022-10-23T20:37:15.947Z,98191.38
2022-10-23T20:40:26.685Z,98191.91
2022-10-23T20:43:39.096Z,98192.84
2022-10-23T20:46:51.224Z,98207.38
